^^
Grace C. Lehan Memorial Weather Station Historical Data
Daily Summary for September 28, 2022 Units:  Both    English   Metric
Daily Weekly Monthly Yearly
  High: Low: Average:
Temperature: 70.4 °F /  21.3 °C 49.9 °F /  9.9 °C 60 °F /  15.6 °C
Dew Point: 56.6 °F /  13.7 °C 47.7 °F /  8.7 °C 51.9 °F /  11.1 °C
Humidity: 93% 57% 76%
Wind Speed: 5.8mph /  9.3km/h - 0.4mph /  0.6km/h
Wind Gust: 14mph /  22.5km/h - -
Wind- - WNW
Pressure: 30.20 in /  1022.6 hPa 29.90 in /  1012.4 hPa -
Precipitation: 0.00 in /  0 mm    
 
 
Tabular Data for September 28, 2022
Time Temperature Dew Point Pressure Wind Wind Speed Wind Gust Humidity Rainfall Rate (Hourly) solar
00:00 55.4 °F /  13 °C 50.3 °F /  10.2 °C 29.90in /  1012.4hPa Calm   3mph /  4.8km/h 83% 0.00in /  0mm 0 W/m2
00:09 55.3 °F /  12.9 °C 50.2 °F /  10.1 °C 29.90in /  1012.4hPa Calm     83% 0.00in /  0mm 0 W/m2
00:14 55.2 °F /  12.9 °C 50.1 °F /  10.1 °C 29.90in /  1012.4hPa Calm     83% 0.00in /  0mm 0 W/m2
00:19 55.1 °F /  12.8 °C 50.3 °F /  10.2 °C 29.90in /  1012.4hPa Calm     83.8% 0.00in /  0mm 0 W/m2
00:24 55 °F /  12.8 °C 50.3 °F /  10.2 °C 29.90in /  1012.4hPa West 0.5mph /  0.8km/h 4mph /  6.4km/h 84% 0.00in /  0mm 0 W/m2
00:29 55 °F /  12.8 °C 50.3 °F /  10.2 °C 29.90in /  1012.4hPa WSW 0.7mph /  1.1km/h 9mph /  14.5km/h 84% 0.00in /  0mm 0 W/m2
00:34 55 °F /  12.8 °C 50.3 °F /  10.2 °C 29.90in /  1012.4hPa SW 0.2mph /  0.3km/h 9mph /  14.5km/h 84% 0.00in /  0mm 0 W/m2
00:39 55.1 °F /  12.8 °C 50.3 °F /  10.2 °C 29.90in /  1012.4hPa Calm   6mph /  9.7km/h 84% 0.00in /  0mm 0 W/m2
00:44 55 °F /  12.8 °C 50.3 °F /  10.2 °C 29.91in /  1012.8hPa SW 0.2mph /  0.3km/h 6mph /  9.7km/h 84% 0.00in /  0mm 0 W/m2
00:49 55 °F /  12.8 °C 50.3 °F /  10.2 °C 29.91in /  1012.8hPa Calm   6mph /  9.7km/h 84% 0.00in /  0mm 0 W/m2
00:54 55 °F /  12.8 °C 50.3 °F /  10.2 °C 29.91in /  1012.8hPa Calm   6mph /  9.7km/h 84% 0.00in /  0mm 0 W/m2
00:59 55 °F /  12.8 °C 50.3 °F /  10.2 °C 29.91in /  1012.8hPa SW 0.1mph /  0.2km/h 6mph /  9.7km/h 84% 0.00in /  0mm 0 W/m2
01:04 55 °F /  12.8 °C 50.2 °F /  10.1 °C 29.91in /  1012.8hPa Calm   6mph /  9.7km/h 84% 0.00in /  0mm 0 W/m2
01:09 54.9 °F /  12.7 °C 50.2 °F /  10.1 °C 29.91in /  1012.8hPa Calm   2mph /  3.2km/h 84% 0.00in /  0mm 0 W/m2
01:14 54.9 °F /  12.7 °C 50.2 °F /  10.1 °C 29.92in /  1013.1hPa Calm   2mph /  3.2km/h 84% 0.00in /  0mm 0 W/m2
01:19 54.9 °F /  12.7 °C 50.1 °F /  10.1 °C 29.92in /  1013.1hPa Calm   2mph /  3.2km/h 84% 0.00in /  0mm 0 W/m2
01:24 54.8 °F /  12.7 °C 50 °F /  10 °C 29.92in /  1013.1hPa Calm   2mph /  3.2km/h 84% 0.00in /  0mm 0 W/m2
01:29 54.6 °F /  12.6 °C 49.9 °F /  9.9 °C 29.91in /  1012.8hPa Calm   2mph /  3.2km/h 84% 0.00in /  0mm 0 W/m2
01:34 54.5 °F /  12.5 °C 49.7 °F /  9.8 °C 29.91in /  1012.8hPa Calm   2mph /  3.2km/h 84% 0.00in /  0mm 0 W/m2
01:39 54.3 °F /  12.4 °C 49.6 °F /  9.8 °C 29.92in /  1013.1hPa Calm     84% 0.00in /  0mm 0 W/m2
01:44 54.2 °F /  12.3 °C 49.6 °F /  9.8 °C 29.92in /  1013.1hPa Calm     84.4% 0.00in /  0mm 0 W/m2
01:49 54.1 °F /  12.3 °C 49.7 °F /  9.8 °C 29.92in /  1013.1hPa Calm     85% 0.00in /  0mm 0 W/m2
01:54 54 °F /  12.2 °C 49.6 °F /  9.8 °C 29.92in /  1013.1hPa Calm     85% 0.00in /  0mm 0 W/m2
01:59 53.9 °F /  12.2 °C 49.5 °F /  9.7 °C 29.92in /  1013.1hPa Calm     85% 0.00in /  0mm 0 W/m2
02:04 53.7 °F /  12.1 °C 49.3 °F /  9.6 °C 29.92in /  1013.1hPa Calm     85% 0.00in /  0mm 0 W/m2
02:09 53.6 °F /  12 °C 49.2 °F /  9.6 °C 29.93in /  1013.4hPa Calm     85% 0.00in /  0mm 0 W/m2
02:14 53.5 °F /  11.9 °C 49.1 °F /  9.5 °C 29.93in /  1013.4hPa Calm     85% 0.00in /  0mm 0 W/m2
02:19 53.3 °F /  11.8 °C 49.2 °F /  9.6 °C 29.93in /  1013.4hPa Calm     85.8% 0.00in /  0mm 0 W/m2
02:24 53.2 °F /  11.8 °C 49.1 °F /  9.5 °C 29.93in /  1013.4hPa Calm     86% 0.00in /  0mm 0 W/m2
02:29 53.1 °F /  11.7 °C 49 °F /  9.4 °C 29.92in /  1013.1hPa Calm     86% 0.00in /  0mm 0 W/m2
02:34 53 °F /  11.7 °C 49 °F /  9.4 °C 29.93in /  1013.4hPa Calm     86.1% 0.00in /  0mm 0 W/m2
02:39 52.9 °F /  11.6 °C 49.1 °F /  9.5 °C 29.92in /  1013.1hPa Calm     87% 0.00in /  0mm 0 W/m2
02:44 52.8 °F /  11.6 °C 49 °F /  9.4 °C 29.93in /  1013.4hPa Calm     87% 0.00in /  0mm 0 W/m2
02:49 52.8 °F /  11.6 °C 49 °F /  9.4 °C 29.93in /  1013.4hPa Calm     87% 0.00in /  0mm 0 W/m2
02:54 52.8 °F /  11.6 °C 49 °F /  9.4 °C 29.93in /  1013.4hPa Calm     87% 0.00in /  0mm 0 W/m2
02:59 52.8 °F /  11.6 °C 49 °F /  9.4 °C 29.93in /  1013.4hPa Calm     87% 0.00in /  0mm 0 W/m2
03:04 52.8 °F /  11.6 °C 49 °F /  9.4 °C 29.93in /  1013.4hPa Calm     87% 0.00in /  0mm 0 W/m2
03:09 52.7 °F /  11.5 °C 48.9 °F /  9.4 °C 29.93in /  1013.4hPa Calm     87% 0.00in /  0mm 0 W/m2
03:14 52.6 °F /  11.4 °C 48.8 °F /  9.3 °C 29.93in /  1013.4hPa Calm     87% 0.00in /  0mm 0 W/m2
03:19 52.4 °F /  11.3 °C 48.7 °F /  9.3 °C 29.93in /  1013.4hPa Calm     87% 0.00in /  0mm 0 W/m2
03:24 52.3 °F /  11.3 °C 48.9 °F /  9.4 °C 29.92in /  1013.1hPa Calm     87.9% 0.00in /  0mm 0 W/m2
03:29 52.2 °F /  11.2 °C 48.8 °F /  9.3 °C 29.92in /  1013.1hPa Calm     88% 0.00in /  0mm 0 W/m2
03:34 52.1 °F /  11.2 °C 48.7 °F /  9.3 °C 29.92in /  1013.1hPa Calm     88% 0.00in /  0mm 0 W/m2
03:39 52 °F /  11.1 °C 48.5 °F /  9.2 °C 29.93in /  1013.4hPa Calm     88% 0.00in /  0mm 0 W/m2
03:44 51.9 °F /  11.1 °C 48.6 °F /  9.2 °C 29.93in /  1013.4hPa Calm     88.5% 0.00in /  0mm 0 W/m2
03:49 51.8 °F /  11 °C 48.8 °F /  9.3 °C 29.93in /  1013.4hPa Calm     89.4% 0.00in /  0mm 0 W/m2
03:54 51.8 °F /  11 °C 48.7 °F /  9.3 °C 29.93in /  1013.4hPa Calm     89% 0.00in /  0mm 0 W/m2
03:59 51.8 °F /  11 °C 48.6 °F /  9.2 °C 29.93in /  1013.4hPa Calm     89% 0.00in /  0mm 0 W/m2
04:00 51.7 °F /  10.9 °C 48.6 °F /  9.2 °C 29.93in /  1013.4hPa Calm     89% 0.00in /  0mm 0 W/m2
04:09 51.6 °F /  10.9 °C 48.4 °F /  9.1 °C 29.93in /  1013.4hPa SW 0.1mph /  0.2km/h 3mph /  4.8km/h 89% 0.00in /  0mm 0 W/m2
04:14 51.4 °F /  10.8 °C 48.3 °F /  9.1 °C 29.93in /  1013.4hPa Calm   3mph /  4.8km/h 89% 0.00in /  0mm 0 W/m2
04:19 51.3 °F /  10.7 °C 48.2 °F /  9 °C 29.94in /  1013.8hPa Calm   3mph /  4.8km/h 89% 0.00in /  0mm 0 W/m2
04:24 51.3 °F /  10.7 °C 48.5 °F /  9.2 °C 29.94in /  1013.8hPa Calm   3mph /  4.8km/h 90% 0.00in /  0mm 0 W/m2
04:29 51.3 °F /  10.7 °C 48.5 °F /  9.2 °C 29.94in /  1013.8hPa Calm   3mph /  4.8km/h 90% 0.00in /  0mm 0 W/m2
04:33 51.3 °F /  10.7 °C 48.4 °F /  9.1 °C 29.94in /  1013.8hPa Calm   3mph /  4.8km/h 90% 0.00in /  0mm 0 W/m2
04:39 51.1 °F /  10.6 °C 48.3 °F /  9.1 °C 29.94in /  1013.8hPa Calm     90% 0.00in /  0mm 0 W/m2
04:44 51 °F /  10.6 °C 48.2 °F /  9 °C 29.94in /  1013.8hPa Calm     90% 0.00in /  0mm 0 W/m2
04:49 51 °F /  10.6 °C 48.1 °F /  8.9 °C 29.94in /  1013.8hPa Calm     90% 0.00in /  0mm 0 W/m2
04:54 50.9 °F /  10.5 °C 48.1 °F /  8.9 °C 29.94in /  1013.8hPa WSW 0.4mph /  0.6km/h 3mph /  4.8km/h 90% 0.00in /  0mm 0 W/m2
04:59 50.9 °F /  10.5 °C 48.3 °F /  9.1 °C 29.94in /  1013.8hPa WSW 0.1mph /  0.2km/h 3mph /  4.8km/h 90.7% 0.00in /  0mm 0 W/m2
05:04 51 °F /  10.6 °C 48.4 °F /  9.1 °C 29.94in /  1013.8hPa Calm   3mph /  4.8km/h 91% 0.00in /  0mm 0 W/m2
05:09 51.1 °F /  10.6 °C 48.5 °F /  9.2 °C 29.94in /  1013.8hPa Calm     91% 0.00in /  0mm 0 W/m2
05:14 51 °F /  10.6 °C 48.5 °F /  9.2 °C 29.94in /  1013.8hPa Calm     91% 0.00in /  0mm 0 W/m2
05:19 50.9 °F /  10.5 °C 48.4 °F /  9.1 °C 29.94in /  1013.8hPa Calm     91% 0.00in /  0mm 0 W/m2
05:24 50.8 °F /  10.4 °C 48.3 °F /  9.1 °C 29.95in /  1014.1hPa Calm     91% 0.00in /  0mm 0 W/m2
05:29 50.7 °F /  10.4 °C 48.2 °F /  9 °C 29.95in /  1014.1hPa Calm     91% 0.00in /  0mm 0 W/m2
05:34 50.7 °F /  10.4 °C 48.2 °F /  9 °C 29.95in /  1014.1hPa Calm     91% 0.00in /  0mm 0 W/m2
05:39 50.7 °F /  10.4 °C 48.2 °F /  9 °C 29.95in /  1014.1hPa Calm     91% 0.00in /  0mm 0 W/m2
05:44 50.6 °F /  10.3 °C 48.1 °F /  8.9 °C 29.95in /  1014.1hPa WSW 0.1mph /  0.2km/h 3mph /  4.8km/h 91% 0.00in /  0mm 0 W/m2
05:49 50.6 °F /  10.3 °C 48.1 °F /  8.9 °C 29.95in /  1014.1hPa Calm   3mph /  4.8km/h 91% 0.00in /  0mm 0 W/m2
05:54 50.6 °F /  10.3 °C 48.1 °F /  8.9 °C 29.95in /  1014.1hPa Calm   3mph /  4.8km/h 91% 0.00in /  0mm 0 W/m2
05:59 50.6 °F /  10.3 °C 48.1 °F /  8.9 °C 29.95in /  1014.1hPa Calm   3mph /  4.8km/h 91% 0.00in /  0mm 0 W/m2
06:04 50.5 °F /  10.3 °C 48 °F /  8.9 °C 29.95in /  1014.1hPa Calm   3mph /  4.8km/h 91% 0.00in /  0mm 0 W/m2
06:09 50.5 °F /  10.3 °C 48.1 °F /  8.9 °C 29.95in /  1014.1hPa Calm     91.5% 0.00in /  0mm 0 W/m2
06:14 50.5 °F /  10.3 °C 48.3 °F /  9.1 °C 29.96in /  1014.4hPa Calm     92% 0.00in /  0mm 0 W/m2
06:19 50.6 °F /  10.3 °C 48.4 °F /  9.1 °C 29.96in /  1014.4hPa Calm     92% 0.00in /  0mm 0 W/m2
06:24 50.5 °F /  10.3 °C 48.2 °F /  9 °C 29.96in /  1014.4hPa Calm     91.8% 0.00in /  0mm 0 W/m2
06:28 50.4 °F /  10.2 °C 47.9 °F /  8.8 °C 29.96in /  1014.4hPa Calm     91% 0.00in /  0mm 0 W/m2
06:30 50.3 °F /  10.2 °C 47.8 °F /  8.8 °C 29.96in /  1014.4hPa Calm     91% 0.00in /  0mm 0 W/m2
07:00 50.1 °F /  10.1 °C 47.9 °F /  8.8 °C 29.97in /  1014.8hPa Calm     92% 0.00in /  0mm 2 W/m2
07:30 49.9 °F /  9.9 °C 47.7 °F /  8.7 °C 29.98in /  1015.1hPa Calm     92% 0.00in /  0mm 12 W/m2
08:04 51.5 °F /  10.8 °C 49.5 °F /  9.7 °C 29.98in /  1015.1hPa Calm     92.9% 0.00in /  0mm 23 W/m2
08:09 51.7 °F /  10.9 °C 49.8 °F /  9.9 °C 29.99in /  1015.5hPa WSW 0.1mph /  0.2km/h 2mph /  3.2km/h 93% 0.00in /  0mm 23 W/m2
08:14 52 °F /  11.1 °C 50 °F /  10 °C 29.99in /  1015.5hPa WSW 0.6mph /  1km/h 5mph /  8km/h 92.8% 0.00in /  0mm 25 W/m2
08:19 52.3 °F /  11.3 °C 50.1 °F /  10.1 °C 29.99in /  1015.5hPa WSW 1mph /  1.6km/h 9mph /  14.5km/h 92% 0.00in /  0mm 26 W/m2
08:24 52.7 °F /  11.5 °C 50.3 °F /  10.2 °C 29.99in /  1015.5hPa West 0.2mph /  0.3km/h 9mph /  14.5km/h 91.7% 0.00in /  0mm 28 W/m2
08:29 53 °F /  11.7 °C 50.4 °F /  10.2 °C 29.99in /  1015.5hPa Calm   9mph /  14.5km/h 91% 0.00in /  0mm 32 W/m2
08:34 53.3 °F /  11.8 °C 50.6 °F /  10.3 °C 29.99in /  1015.5hPa West 0.1mph /  0.2km/h 9mph /  14.5km/h 90.6% 0.00in /  0mm 35 W/m2
08:39 53.6 °F /  12 °C 50.7 °F /  10.4 °C 29.99in /  1015.5hPa Calm   2mph /  3.2km/h 89.6% 0.00in /  0mm 42 W/m2
08:44 54 °F /  12.2 °C 50.8 °F /  10.4 °C 29.99in /  1015.5hPa Calm   2mph /  3.2km/h 89% 0.00in /  0mm 49 W/m2
08:49 54.3 °F /  12.4 °C 50.9 °F /  10.5 °C 30.00in /  1015.8hPa Calm   2mph /  3.2km/h 88.2% 0.00in /  0mm 54 W/m2
08:54 54.7 °F /  12.6 °C 51.1 °F /  10.6 °C 29.99in /  1015.5hPa Calm   2mph /  3.2km/h 87.7% 0.00in /  0mm 63 W/m2
08:59 55.1 °F /  12.8 °C 51.4 °F /  10.8 °C 30.00in /  1015.8hPa Calm   2mph /  3.2km/h 87.1% 0.00in /  0mm 93 W/m2
09:04 55.6 °F /  13.1 °C 51.7 °F /  10.9 °C 30.00in /  1015.8hPa Calm   2mph /  3.2km/h 86.7% 0.00in /  0mm 417 W/m2
09:09 56.2 °F /  13.4 °C 52.1 °F /  11.2 °C 30.00in /  1015.8hPa Calm     86% 0.00in /  0mm 436 W/m2
09:14 57.4 °F /  14.1 °C 53 °F /  11.7 °C 30.00in /  1015.8hPa Calm     85.1% 0.00in /  0mm 450 W/m2
09:19 58.7 °F /  14.8 °C 53.6 °F /  12 °C 30.00in /  1015.8hPa Calm     82.9% 0.00in /  0mm 468 W/m2
09:24 60.3 °F /  15.7 °C 54.3 °F /  12.4 °C 30.00in /  1015.8hPa Calm     80.6% 0.00in /  0mm 490 W/m2
09:29 61.8 °F /  16.6 °C 54.4 °F /  12.4 °C 30.00in /  1015.8hPa Calm     76.8% 0.00in /  0mm 504 W/m2
09:34 62.9 °F /  17.2 °C 54.7 °F /  12.6 °C 30.00in /  1015.8hPa Calm     74.6% 0.00in /  0mm 522 W/m2
09:39 64.1 °F /  17.8 °C 55.4 °F /  13 °C 30.01in /  1016.1hPa Calm     73.4% 0.00in /  0mm 534 W/m2
09:44 65 °F /  18.3 °C 55.7 °F /  13.2 °C 30.01in /  1016.1hPa Calm     71.9% 0.00in /  0mm 543 W/m2
09:49 65.8 °F /  18.8 °C 55.4 °F /  13 °C 30.01in /  1016.1hPa West 0.5mph /  0.8km/h 3mph /  4.8km/h 69% 0.00in /  0mm 552 W/m2
09:54 66.3 °F /  19.1 °C 55.7 °F /  13.2 °C 30.01in /  1016.1hPa West 0.5mph /  0.8km/h 6mph /  9.7km/h 68.8% 0.00in /  0mm 563 W/m2
09:59 66.6 °F /  19.2 °C 55.1 °F /  12.8 °C 30.01in /  1016.1hPa West 1.8mph /  2.9km/h 9mph /  14.5km/h 66.3% 0.00in /  0mm 575 W/m2
10:04 66.8 °F /  19.3 °C 54.7 °F /  12.6 °C 30.01in /  1016.1hPa WNW 1.7mph /  2.7km/h 9mph /  14.5km/h 65.2% 0.00in /  0mm 584 W/m2
10:09 67 °F /  19.4 °C 55.1 °F /  12.8 °C 30.01in /  1016.1hPa WNW 0.1mph /  0.2km/h 7mph /  11.3km/h 65.6% 0.00in /  0mm 598 W/m2
10:14 67.2 °F /  19.6 °C 55 °F /  12.8 °C 30.02in /  1016.5hPa WNW 0.7mph /  1.1km/h 7mph /  11.3km/h 65% 0.00in /  0mm 606 W/m2
10:19 67.4 °F /  19.7 °C 55.3 °F /  12.9 °C 30.02in /  1016.5hPa WNW 1.2mph /  1.9km/h 7mph /  11.3km/h 65.1% 0.00in /  0mm 626 W/m2
10:24 67.8 °F /  19.9 °C 55.9 °F /  13.3 °C 30.02in /  1016.5hPa WNW 0.7mph /  1.1km/h 7mph /  11.3km/h 65.8% 0.00in /  0mm 636 W/m2
10:29 68.1 °F /  20.1 °C 55.9 °F /  13.3 °C 30.02in /  1016.5hPa WNW 0.5mph /  0.8km/h 7mph /  11.3km/h 65.1% 0.00in /  0mm 663 W/m2
10:34 68.4 °F /  20.2 °C 55.8 °F /  13.2 °C 30.02in /  1016.5hPa Calm   7mph /  11.3km/h 64% 0.00in /  0mm 663 W/m2
10:39 68.6 °F /  20.3 °C 55.4 °F /  13 °C 30.02in /  1016.5hPa Calm   2mph /  3.2km/h 62.8% 0.00in /  0mm 659 W/m2
10:44 68.9 °F /  20.5 °C 55.6 °F /  13.1 °C 30.02in /  1016.5hPa WNW 0.1mph /  0.2km/h 2mph /  3.2km/h 62.6% 0.00in /  0mm 671 W/m2
10:49 69.2 °F /  20.7 °C 55.6 °F /  13.1 °C 30.02in /  1016.5hPa West 0.4mph /  0.6km/h 5mph /  8km/h 61.7% 0.00in /  0mm 677 W/m2
10:54 69.8 °F /  21 °C 56.6 °F /  13.7 °C 30.02in /  1016.5hPa West 0.2mph /  0.3km/h 6mph /  9.7km/h 62.8% 0.00in /  0mm 691 W/m2
10:59 70.4 °F /  21.3 °C 56.3 °F /  13.5 °C 30.02in /  1016.5hPa WSW 1.1mph /  1.8km/h 6mph /  9.7km/h 60.9% 0.00in /  0mm 714 W/m2
11:04 70.4 °F /  21.3 °C 55.6 °F /  13.1 °C 30.02in /  1016.5hPa West 3.2mph /  5.1km/h 10mph /  16.1km/h 59.4% 0.00in /  0mm 715 W/m2
11:09 70.3 °F /  21.3 °C 55.9 °F /  13.3 °C 30.02in /  1016.5hPa West 0.8mph /  1.3km/h 10mph /  16.1km/h 60.3% 0.00in /  0mm 722 W/m2
11:14 70.3 °F /  21.3 °C 55.9 °F /  13.3 °C 30.03in /  1016.8hPa WNW 1.2mph /  1.9km/h 10mph /  16.1km/h 60.4% 0.00in /  0mm 738 W/m2
11:19 70.2 °F /  21.2 °C 55.1 °F /  12.8 °C 30.03in /  1016.8hPa WNW 0.2mph /  0.3km/h 10mph /  16.1km/h 58.9% 0.00in /  0mm 624 W/m2
11:24 69.9 °F /  21.1 °C 55.6 °F /  13.1 °C 30.03in /  1016.8hPa WNW 1.5mph /  2.4km/h 10mph /  16.1km/h 60.4% 0.00in /  0mm 659 W/m2
11:29 69.7 °F /  20.9 °C 55.2 °F /  12.9 °C 30.03in /  1016.8hPa WNW 2.2mph /  3.5km/h 10mph /  16.1km/h 59.9% 0.00in /  0mm 650 W/m2
11:34 69.5 °F /  20.8 °C 55.1 °F /  12.8 °C 30.03in /  1016.8hPa WNW 0.1mph /  0.2km/h 10mph /  16.1km/h 60.2% 0.00in /  0mm 492 W/m2
11:39 69.5 °F /  20.8 °C 56.1 °F /  13.4 °C 30.03in /  1016.8hPa NNW 1.5mph /  2.4km/h 9mph /  14.5km/h 62.3% 0.00in /  0mm 492 W/m2
11:44 69.6 °F /  20.9 °C 55.8 °F /  13.2 °C 30.03in /  1016.8hPa NNW 2mph /  3.2km/h 9mph /  14.5km/h 61.4% 0.00in /  0mm 153 W/m2
11:49 69.6 °F /  20.9 °C 54.9 °F /  12.7 °C 30.03in /  1016.8hPa NNW 0.6mph /  1km/h 9mph /  14.5km/h 59.6% 0.00in /  0mm 151 W/m2
11:54 69.4 °F /  20.8 °C 55.3 °F /  12.9 °C 30.03in /  1016.8hPa WNW 1.2mph /  1.9km/h 9mph /  14.5km/h 60.7% 0.00in /  0mm 207 W/m2
11:59 69.2 °F /  20.7 °C 54.4 °F /  12.4 °C 30.03in /  1016.8hPa NW 0.1mph /  0.2km/h 9mph /  14.5km/h 59.3% 0.00in /  0mm 200 W/m2
12:04 69 °F /  20.6 °C 54.7 °F /  12.6 °C 30.03in /  1016.8hPa West 5.8mph /  9.3km/h 7mph /  11.3km/h 60.4% 0.00in /  0mm 227 W/m2
12:09 68.8 °F /  20.4 °C 54.4 °F /  12.4 °C 30.03in /  1016.8hPa West 2.1mph /  3.4km/h 9mph /  14.5km/h 60% 0.00in /  0mm 253 W/m2
12:10 68.7 °F /  20.4 °C 54.3 °F /  12.4 °C 30.03in /  1016.8hPa WNW 0.4mph /  0.6km/h 9mph /  14.5km/h 60% 0.00in /  0mm 171 W/m2
12:30 68.2 °F /  20.1 °C 54.7 °F /  12.6 °C 30.03in /  1016.8hPa West 2mph /  3.2km/h 11mph /  17.7km/h 62% 0.00in /  0mm 230 W/m2
14:00 67.2 °F /  19.6 °C 53.3 °F /  11.8 °C 30.04in /  1017.2hPa WNW 2mph /  3.2km/h 11mph /  17.7km/h 61% 0.00in /  0mm 115 W/m2
14:30 68.4 °F /  20.2 °C 53.1 °F /  11.7 °C 30.03in /  1016.8hPa WNW 2mph /  3.2km/h 10mph /  16.1km/h 58% 0.00in /  0mm 115 W/m2
15:00 69.4 °F /  20.8 °C 53.5 °F /  11.9 °C 30.03in /  1016.8hPa WNW 3mph /  4.8km/h 14mph /  22.5km/h 57% 0.00in /  0mm 123 W/m2
15:30 68.1 °F /  20.1 °C 52.8 °F /  11.6 °C 30.04in /  1017.2hPa NW 2mph /  3.2km/h 11mph /  17.7km/h 58% 0.00in /  0mm 110 W/m2
16:04 68.4 °F /  20.2 °C 53.7 °F /  12.1 °C 30.04in /  1017.2hPa WNW 1.4mph /  2.3km/h 11mph /  17.7km/h 59.3% 0.00in /  0mm 110 W/m2
16:09 68.6 °F /  20.3 °C 53.7 °F /  12.1 °C 30.04in /  1017.2hPa WNW 1.4mph /  2.3km/h 9mph /  14.5km/h 59.1% 0.00in /  0mm 72 W/m2
16:14 68.8 °F /  20.4 °C 54.4 °F /  12.4 °C 30.04in /  1017.2hPa WNW 0.9mph /  1.4km/h 9mph /  14.5km/h 60.1% 0.00in /  0mm 167 W/m2
16:19 69.1 °F /  20.6 °C 54.8 °F /  12.7 °C 30.04in /  1017.2hPa WNW 0.5mph /  0.8km/h 9mph /  14.5km/h 60.4% 0.00in /  0mm 167 W/m2
16:24 69.3 °F /  20.7 °C 53.7 °F /  12.1 °C 30.04in /  1017.2hPa WNW 3.9mph /  6.3km/h 10mph /  16.1km/h 57.6% 0.00in /  0mm 137 W/m2
16:29 69.4 °F /  20.8 °C 53.6 °F /  12 °C 30.05in /  1017.5hPa West 0.3mph /  0.5km/h 10mph /  16.1km/h 57.3% 0.00in /  0mm 107 W/m2
16:34 69.4 °F /  20.8 °C 54 °F /  12.2 °C 30.05in /  1017.5hPa NNW 1.3mph /  2.1km/h 10mph /  16.1km/h 58% 0.00in /  0mm 77 W/m2
16:39 69.2 °F /  20.7 °C 53.9 °F /  12.2 °C 30.05in /  1017.5hPa WNW 0.9mph /  1.4km/h 7mph /  11.3km/h 58.2% 0.00in /  0mm 76 W/m2
16:44 69.1 °F /  20.6 °C 53.9 °F /  12.2 °C 30.05in /  1017.5hPa West 0.1mph /  0.2km/h 7mph /  11.3km/h 58.4% 0.00in /  0mm 63 W/m2
16:49 69.1 °F /  20.6 °C 53.8 °F /  12.1 °C 30.05in /  1017.5hPa WNW 0.3mph /  0.5km/h 7mph /  11.3km/h 58.3% 0.00in /  0mm 62 W/m2
16:54 68.9 °F /  20.5 °C 53.8 °F /  12.1 °C 30.05in /  1017.5hPa NNW 0.3mph /  0.5km/h 7mph /  11.3km/h 58.4% 0.00in /  0mm 65 W/m2
16:59 68.8 °F /  20.4 °C 53.7 °F /  12.1 °C 30.06in /  1017.8hPa NNW 0.3mph /  0.5km/h 7mph /  11.3km/h 58.6% 0.00in /  0mm 47 W/m2
17:04 68.7 °F /  20.4 °C 54 °F /  12.2 °C 30.06in /  1017.8hPa Calm   7mph /  11.3km/h 59.5% 0.00in /  0mm 28 W/m2
17:09 68.6 °F /  20.3 °C 53.8 °F /  12.1 °C 30.06in /  1017.8hPa NNW 0.1mph /  0.2km/h 2mph /  3.2km/h 59.3% 0.00in /  0mm 26 W/m2
17:14 68.4 °F /  20.2 °C 53.6 °F /  12 °C 30.06in /  1017.8hPa Calm   2mph /  3.2km/h 59% 0.00in /  0mm 25 W/m2
17:19 68.3 °F /  20.2 °C 53.8 °F /  12.1 °C 30.06in /  1017.8hPa Calm   2mph /  3.2km/h 59.7% 0.00in /  0mm 25 W/m2
17:24 68.2 °F /  20.1 °C 53.9 °F /  12.2 °C 30.06in /  1017.8hPa Calm   2mph /  3.2km/h 60.2% 0.00in /  0mm 25 W/m2
17:29 68.1 °F /  20.1 °C 54 °F /  12.2 °C 30.07in /  1018.2hPa NW 0.3mph /  0.5km/h 3mph /  4.8km/h 60.8% 0.00in /  0mm 25 W/m2
17:34 67.9 °F /  19.9 °C 54 °F /  12.2 °C 30.07in /  1018.2hPa Calm   3mph /  4.8km/h 61% 0.00in /  0mm 16 W/m2
17:39 67.8 °F /  19.9 °C 53.8 °F /  12.1 °C 30.07in /  1018.2hPa Calm     61% 0.00in /  0mm 25 W/m2
17:44 67.6 °F /  19.8 °C 53.8 °F /  12.1 °C 30.08in /  1018.5hPa Calm   1mph /  1.6km/h 61.3% 0.00in /  0mm 26 W/m2
17:49 67.4 °F /  19.7 °C 54 °F /  12.2 °C 30.08in /  1018.5hPa Calm   1mph /  1.6km/h 62% 0.00in /  0mm 23 W/m2
17:54 67.2 °F /  19.6 °C 53.8 °F /  12.1 °C 30.08in /  1018.5hPa Calm   1mph /  1.6km/h 62% 0.00in /  0mm 23 W/m2
17:59 67.1 °F /  19.5 °C 54 °F /  12.2 °C 30.08in /  1018.5hPa Calm   1mph /  1.6km/h 62.8% 0.00in /  0mm 21 W/m2
18:04 67 °F /  19.4 °C 53.9 °F /  12.2 °C 30.08in /  1018.5hPa Calm   1mph /  1.6km/h 62.8% 0.00in /  0mm 16 W/m2
18:09 66.8 °F /  19.3 °C 53.9 °F /  12.2 °C 30.08in /  1018.5hPa Calm     63.1% 0.00in /  0mm 16 W/m2
18:14 66.7 °F /  19.3 °C 54.2 °F /  12.3 °C 30.08in /  1018.5hPa Calm     64.3% 0.00in /  0mm 12 W/m2
18:19 66.5 °F /  19.2 °C 54.7 °F /  12.6 °C 30.08in /  1018.5hPa Calm     65.7% 0.00in /  0mm 7 W/m2
18:24 66.3 °F /  19.1 °C 55 °F /  12.8 °C 30.08in /  1018.5hPa Calm     67% 0.00in /  0mm 5 W/m2
18:29 66.1 °F /  18.9 °C 54.8 °F /  12.7 °C 30.08in /  1018.5hPa Calm     67% 0.00in /  0mm 0 W/m2
18:34 65.9 °F /  18.8 °C 54.6 °F /  12.6 °C 30.09in /  1018.8hPa NW 0.1mph /  0.2km/h 2mph /  3.2km/h 67% 0.00in /  0mm 0 W/m2
18:39 65.7 °F /  18.7 °C 54.5 °F /  12.5 °C 30.09in /  1018.8hPa NW 0.2mph /  0.3km/h 5mph /  8km/h 67% 0.00in /  0mm 0 W/m2
18:44 65.5 °F /  18.6 °C 54.3 °F /  12.4 °C 30.09in /  1018.8hPa NW 0.1mph /  0.2km/h 5mph /  8km/h 67% 0.00in /  0mm 0 W/m2
18:49 65.4 °F /  18.6 °C 54.2 °F /  12.3 °C 30.09in /  1018.8hPa WNW 0.5mph /  0.8km/h 6mph /  9.7km/h 67% 0.00in /  0mm 0 W/m2
18:54 65.3 °F /  18.5 °C 54 °F /  12.2 °C 30.10in /  1019.2hPa WNW 1mph /  1.6km/h 6mph /  9.7km/h 67% 0.00in /  0mm 0 W/m2
18:59 65.1 °F /  18.4 °C 53.9 °F /  12.2 °C 30.10in /  1019.2hPa WNW 0.7mph /  1.1km/h 6mph /  9.7km/h 67% 0.00in /  0mm 0 W/m2
19:04 65 °F /  18.3 °C 53.9 °F /  12.2 °C 30.10in /  1019.2hPa WNW 0.1mph /  0.2km/h 6mph /  9.7km/h 67.2% 0.00in /  0mm 0 W/m2
19:09 64.9 °F /  18.3 °C 54.1 °F /  12.3 °C 30.11in /  1019.5hPa WNW 0.1mph /  0.2km/h 2mph /  3.2km/h 68% 0.00in /  0mm 0 W/m2
19:14 64.8 °F /  18.2 °C 53.7 °F /  12.1 °C 30.12in /  1019.9hPa WNW 0.4mph /  0.6km/h 4mph /  6.4km/h 67.4% 0.00in /  0mm 0 W/m2
19:19 64.7 °F /  18.2 °C 53.9 °F /  12.2 °C 30.12in /  1019.9hPa WNW 0.2mph /  0.3km/h 4mph /  6.4km/h 68% 0.00in /  0mm 0 W/m2
19:24 64.5 °F /  18.1 °C 53.7 °F /  12.1 °C 30.12in /  1019.9hPa Calm   4mph /  6.4km/h 68% 0.00in /  0mm 0 W/m2
19:29 64.4 °F /  18 °C 53.9 °F /  12.2 °C 30.12in /  1019.9hPa WNW 0.2mph /  0.3km/h 4mph /  6.4km/h 68.7% 0.00in /  0mm 0 W/m2
19:34 64.2 °F /  17.9 °C 53.8 °F /  12.1 °C 30.12in /  1019.9hPa WNW 0.1mph /  0.2km/h 4mph /  6.4km/h 69% 0.00in /  0mm 0 W/m2
19:39 64 °F /  17.8 °C 53.6 °F /  12 °C 30.12in /  1019.9hPa WNW 0.1mph /  0.2km/h 3mph /  4.8km/h 69% 0.00in /  0mm 0 W/m2
19:44 63.8 °F /  17.7 °C 53.4 °F /  11.9 °C 30.13in /  1020.2hPa WNW 0.2mph /  0.3km/h 4mph /  6.4km/h 69% 0.00in /  0mm 0 W/m2
19:49 63.6 °F /  17.6 °C 53.5 °F /  11.9 °C 30.14in /  1020.5hPa Calm   4mph /  6.4km/h 69.6% 0.00in /  0mm 0 W/m2
19:54 63.4 °F /  17.4 °C 53.5 °F /  11.9 °C 30.14in /  1020.5hPa WNW 0.2mph /  0.3km/h 4mph /  6.4km/h 70% 0.00in /  0mm 0 W/m2
19:59 63.2 °F /  17.3 °C 53.2 °F /  11.8 °C 30.14in /  1020.5hPa Calm   4mph /  6.4km/h 70% 0.00in /  0mm 0 W/m2
20:04 62.8 °F /  17.1 °C 53.3 °F /  11.8 °C 30.14in /  1020.5hPa Calm     71% 0.00in /  0mm 0 W/m2
20:09 62.7 °F /  17.1 °C 53.2 °F /  11.8 °C 30.15in /  1020.9hPa WNW 0.3mph /  0.5km/h 5mph /  8km/h 71% 0.00in /  0mm 0 W/m2
20:14 62.5 °F /  16.9 °C 53 °F /  11.7 °C 30.15in /  1020.9hPa WNW 0.1mph /  0.2km/h 5mph /  8km/h 71% 0.00in /  0mm 0 W/m2
20:19 62.3 °F /  16.8 °C 53.1 °F /  11.7 °C 30.15in /  1020.9hPa WNW 0.2mph /  0.3km/h 5mph /  8km/h 71.8% 0.00in /  0mm 0 W/m2
20:24 62.2 °F /  16.8 °C 53.1 °F /  11.7 °C 30.15in /  1020.9hPa Calm   5mph /  8km/h 72% 0.00in /  0mm 0 W/m2
20:29 62.1 °F /  16.7 °C 53.4 °F /  11.9 °C 30.15in /  1020.9hPa WNW 0.5mph /  0.8km/h 5mph /  8km/h 72.9% 0.00in /  0mm 0 W/m2
20:34 62.1 °F /  16.7 °C 53.3 °F /  11.8 °C 30.16in /  1021.2hPa WNW 0.6mph /  1km/h 5mph /  8km/h 73% 0.00in /  0mm 0 W/m2
20:39 62.1 °F /  16.7 °C 53.3 °F /  11.8 °C 30.16in /  1021.2hPa Calm   5mph /  8km/h 73% 0.00in /  0mm 0 W/m2
20:44 62 °F /  16.7 °C 53.3 °F /  11.8 °C 30.16in /  1021.2hPa WNW 0.1mph /  0.2km/h 5mph /  8km/h 73% 0.00in /  0mm 0 W/m2
20:49 62 °F /  16.7 °C 53.3 °F /  11.8 °C 30.16in /  1021.2hPa Calm   5mph /  8km/h 73% 0.00in /  0mm 0 W/m2
20:54 62 °F /  16.7 °C 53.2 °F /  11.8 °C 30.16in /  1021.2hPa WNW 0.2mph /  0.3km/h 5mph /  8km/h 72.9% 0.00in /  0mm 0 W/m2
20:59 62 °F /  16.7 °C 53.1 °F /  11.7 °C 30.16in /  1021.2hPa NW 0.5mph /  0.8km/h 6mph /  9.7km/h 72.5% 0.00in /  0mm 0 W/m2
21:04 62 °F /  16.7 °C 52.9 °F /  11.6 °C 30.16in /  1021.2hPa NW 0.7mph /  1.1km/h 6mph /  9.7km/h 72% 0.00in /  0mm 0 W/m2
21:09 62 °F /  16.7 °C 52.9 °F /  11.6 °C 30.16in /  1021.2hPa NW 1.2mph /  1.9km/h 5mph /  8km/h 72% 0.00in /  0mm 0 W/m2
21:14 62 °F /  16.7 °C 52.9 °F /  11.6 °C 30.16in /  1021.2hPa NNW 0.2mph /  0.3km/h 5mph /  8km/h 72% 0.00in /  0mm 0 W/m2
21:19 62 °F /  16.7 °C 52.7 °F /  11.5 °C 30.17in /  1021.6hPa NNW 0.3mph /  0.5km/h 5mph /  8km/h 71.6% 0.00in /  0mm 0 W/m2
21:24 62 °F /  16.7 °C 52.6 °F /  11.4 °C 30.17in /  1021.6hPa NNW 0.3mph /  0.5km/h 5mph /  8km/h 71.2% 0.00in /  0mm 0 W/m2
21:29 62 °F /  16.7 °C 52.4 °F /  11.3 °C 30.16in /  1021.2hPa NW 0.4mph /  0.6km/h 5mph /  8km/h 70.7% 0.00in /  0mm 0 W/m2
21:34 62 °F /  16.7 °C 52.1 °F /  11.2 °C 30.17in /  1021.6hPa NW 1.2mph /  1.9km/h 6mph /  9.7km/h 70% 0.00in /  0mm 0 W/m2
21:39 62 °F /  16.7 °C 52.1 °F /  11.2 °C 30.17in /  1021.6hPa NW 0.9mph /  1.4km/h 10mph /  16.1km/h 70% 0.00in /  0mm 0 W/m2
21:44 62 °F /  16.7 °C 52.1 °F /  11.2 °C 30.17in /  1021.6hPa NW 1.1mph /  1.8km/h 10mph /  16.1km/h 70% 0.00in /  0mm 0 W/m2
21:49 61.9 °F /  16.6 °C 52 °F /  11.1 °C 30.17in /  1021.6hPa NW 0.3mph /  0.5km/h 10mph /  16.1km/h 70% 0.00in /  0mm 0 W/m2
21:54 61.8 °F /  16.6 °C 51.9 °F /  11.1 °C 30.17in /  1021.6hPa NW 1mph /  1.6km/h 10mph /  16.1km/h 70.2% 0.00in /  0mm 0 W/m2
21:59 61.5 °F /  16.4 °C 52 °F /  11.1 °C 30.17in /  1021.6hPa NNW 1.1mph /  1.8km/h 10mph /  16.1km/h 70.9% 0.00in /  0mm 0 W/m2
22:04 61.3 °F /  16.3 °C 51.9 °F /  11.1 °C 30.17in /  1021.6hPa NW 0.5mph /  0.8km/h 10mph /  16.1km/h 71% 0.00in /  0mm 0 W/m2
22:09 61.2 °F /  16.2 °C 51.7 °F /  10.9 °C 30.18in /  1021.9hPa NW 0.1mph /  0.2km/h 5mph /  8km/h 71% 0.00in /  0mm 0 W/m2
22:14 61.1 °F /  16.2 °C 51.6 °F /  10.9 °C 30.18in /  1021.9hPa Calm   5mph /  8km/h 71% 0.00in /  0mm 0 W/m2
22:19 60.9 °F /  16.1 °C 51.5 °F /  10.8 °C 30.18in /  1021.9hPa Calm   5mph /  8km/h 71.2% 0.00in /  0mm 0 W/m2
22:24 60.8 °F /  16 °C 51.4 °F /  10.8 °C 30.19in /  1022.2hPa NW 0.1mph /  0.2km/h 5mph /  8km/h 71.2% 0.00in /  0mm 0 W/m2
22:29 60.6 °F /  15.9 °C 51.5 °F /  10.8 °C 30.19in /  1022.2hPa NW 0.3mph /  0.5km/h 5mph /  8km/h 72% 0.00in /  0mm 0 W/m2
22:34 60.5 °F /  15.8 °C 51.5 °F /  10.8 °C 30.19in /  1022.2hPa NW 0.2mph /  0.3km/h 5mph /  8km/h 72.1% 0.00in /  0mm 0 W/m2
22:39 60.3 °F /  15.7 °C 51.6 °F /  10.9 °C 30.19in /  1022.2hPa NNW 0.1mph /  0.2km/h 3mph /  4.8km/h 73% 0.00in /  0mm 0 W/m2
22:44 60.1 °F /  15.6 °C 51.5 °F /  10.8 °C 30.19in /  1022.2hPa NNW 0.5mph /  0.8km/h 6mph /  9.7km/h 73.1% 0.00in /  0mm 0 W/m2
22:49 59.9 °F /  15.5 °C 51.6 °F /  10.9 °C 30.19in /  1022.2hPa NNW 0.5mph /  0.8km/h 6mph /  9.7km/h 74% 0.00in /  0mm 0 W/m2
22:54 59.7 °F /  15.4 °C 51.4 °F /  10.8 °C 30.19in /  1022.2hPa NNW 0.1mph /  0.2km/h 6mph /  9.7km/h 74% 0.00in /  0mm 0 W/m2
22:59 59.6 °F /  15.3 °C 51.4 °F /  10.8 °C 30.19in /  1022.2hPa NW 0.7mph /  1.1km/h 6mph /  9.7km/h 74.4% 0.00in /  0mm 0 W/m2
23:04 59.5 °F /  15.3 °C 51.5 °F /  10.8 °C 30.19in /  1022.2hPa NNW 1mph /  1.6km/h 6mph /  9.7km/h 75% 0.00in /  0mm 0 W/m2
23:09 59.3 °F /  15.2 °C 51.5 °F /  10.8 °C 30.19in /  1022.2hPa NNW 0.7mph /  1.1km/h 5mph /  8km/h 75.2% 0.00in /  0mm 0 W/m2
23:14 59.2 °F /  15.1 °C 51.6 °F /  10.9 °C 30.19in /  1022.2hPa NNW 0.5mph /  0.8km/h 5mph /  8km/h 75.8% 0.00in /  0mm 0 W/m2
23:19 59.1 °F /  15.1 °C 51.6 °F /  10.9 °C 30.19in /  1022.2hPa NW 0.6mph /  1km/h 5mph /  8km/h 76% 0.00in /  0mm 0 W/m2
23:24 59 °F /  15 °C 51.5 °F /  10.8 °C 30.19in /  1022.2hPa NW 0.3mph /  0.5km/h 5mph /  8km/h 76% 0.00in /  0mm 0 W/m2
23:29 58.9 °F /  14.9 °C 51.6 °F /  10.9 °C 30.19in /  1022.2hPa NW 0.1mph /  0.2km/h 5mph /  8km/h 76.7% 0.00in /  0mm 0 W/m2
23:34 58.8 °F /  14.9 °C 51.6 °F /  10.9 °C 30.19in /  1022.2hPa Calm   5mph /  8km/h 77% 0.00in /  0mm 0 W/m2
23:37 58.7 °F /  14.8 °C 51.5 °F /  10.8 °C 30.20in /  1022.6hPa Calm   1mph /  1.6km/h 77% 0.00in /  0mm 0 W/m2
Hartford County Weather
Compliments of Weather Underground - 4 mb